sensor_id;sensor_type;location;lat;lon;timestamp;P1;durP1;ratioP1;P2;durP2;ratioP2
49590;SDS011;35496;-21.974;-46.800;2023-06-26T00:01:29;4.70;;;3.80;;
49590;SDS011;35496;-21.974;-46.800;2023-06-26T00:03:56;7.28;;;4.63;;
49590;SDS011;35496;-21.974;-46.800;2023-06-26T00:06:23;7.00;;;4.45;;
49590;SDS011;35496;-21.974;-46.800;2023-06-26T00:08:50;6.28;;;4.60;;
49590;SDS011;35496;-21.974;-46.800;2023-06-26T00:11:16;3.60;;;3.30;;
49590;SDS011;35496;-21.974;-46.800;2023-06-26T00:13:42;5.43;;;3.35;;
49590;SDS011;35496;-21.974;-46.800;2023-06-26T00:16:08;5.75;;;3.88;;
49590;SDS011;35496;-21.974;-46.800;2023-06-26T00:18:34;9.20;;;4.25;;
49590;SDS011;35496;-21.974;-46.800;2023-06-26T00:21:00;4.43;;;3.35;;
49590;SDS011;35496;-21.974;-46.800;2023-06-26T00:23:26;4.68;;;4.13;;
49590;SDS011;35496;-21.974;-46.800;2023-06-26T00:26:03;9.93;;;5.30;;
49590;SDS011;35496;-21.974;-46.800;2023-06-26T00:28:29;9.90;;;5.55;;
49590;SDS011;35496;-21.974;-46.800;2023-06-26T00:30:55;11.63;;;7.30;;
49590;SDS011;35496;-21.974;-46.800;2023-06-26T00:33:21;5.55;;;4.10;;
49590;SDS011;35496;-21.974;-46.800;2023-06-26T00:35:47;4.43;;;3.40;;
49590;SDS011;35496;-21.974;-46.800;2023-06-26T00:38:13;5.45;;;3.50;;
49590;SDS011;35496;-21.974;-46.800;2023-06-26T00:40:39;7.18;;;3.65;;
49590;SDS011;35496;-21.974;-46.800;2023-06-26T00:43:05;6.25;;;5.65;;
49590;SDS011;35496;-21.974;-46.800;2023-06-26T00:45:34;6.07;;;4.65;;
49590;SDS011;35496;-21.974;-46.800;2023-06-26T00:48:01;4.93;;;4.13;;
49590;SDS011;35496;-21.974;-46.800;2023-06-26T00:50:27;8.50;;;3.83;;
49590;SDS011;35496;-21.974;-46.800;2023-06-26T00:52:54;5.63;;;4.00;;
49590;SDS011;35496;-21.974;-46.800;2023-06-26T00:55:29;4.33;;;3.60;;
49590;SDS011;35496;-21.974;-46.800;2023-06-26T00:57:55;7.72;;;4.35;;
49590;SDS011;35496;-21.974;-46.800;2023-06-26T01:00:21;5.63;;;4.22;;
49590;SDS011;35496;-21.974;-46.800;2023-06-26T01:02:48;6.35;;;3.17;;
49590;SDS011;35496;-21.974;-46.800;2023-06-26T01:05:14;6.53;;;4.07;;
49590;SDS011;35496;-21.974;-46.800;2023-06-26T01:07:47;5.90;;;4.15;;
49590;SDS011;35496;-21.974;-46.800;2023-06-26T01:10:13;11.05;;;4.13;;
49590;SDS011;35496;-21.974;-46.800;2023-06-26T01:12:39;3.95;;;3.55;;
49590;SDS011;35496;-21.974;-46.800;2023-06-26T01:15:06;5.72;;;3.85;;
49590;SDS011;35496;-21.974;-46.800;2023-06-26T01:17:32;5.25;;;4.43;;
49590;SDS011;35496;-21.974;-46.800;2023-06-26T01:19:59;3.58;;;3.25;;
49590;SDS011;35496;-21.974;-46.800;2023-06-26T01:27:37;6.63;;;3.97;;
49590;SDS011;35496;-21.974;-46.800;2023-06-26T01:30:03;5.13;;;3.55;;
49590;SDS011;35496;-21.974;-46.800;2023-06-26T01:32:30;8.00;;;3.65;;
49590;SDS011;35496;-21.974;-46.800;2023-06-26T01:34:57;7.45;;;3.25;;
49590;SDS011;35496;-21.974;-46.800;2023-06-26T01:37:23;5.75;;;3.80;;
49590;SDS011;35496;-21.974;-46.800;2023-06-26T01:39:49;7.45;;;3.78;;
49590;SDS011;35496;-21.974;-46.800;2023-06-26T01:42:15;4.07;;;3.67;;
49590;SDS011;35496;-21.974;-46.800;2023-06-26T01:44:45;4.45;;;3.25;;
49590;SDS011;35496;-21.974;-46.800;2023-06-26T01:47:14;3.75;;;3.45;;
49590;SDS011;35496;-21.974;-46.800;2023-06-26T01:54:50;4.72;;;4.13;;
49590;SDS011;35496;-21.974;-46.800;2023-06-26T01:57:18;4.00;;;3.60;;
49590;SDS011;35496;-21.974;-46.800;2023-06-26T01:59:46;4.32;;;3.00;;
49590;SDS011;35496;-21.974;-46.800;2023-06-26T02:02:13;9.50;;;3.60;;
49590;SDS011;35496;-21.974;-46.800;2023-06-26T02:04:39;6.75;;;3.10;;
49590;SDS011;35496;-21.974;-46.800;2023-06-26T02:07:05;7.68;;;3.85;;
49590;SDS011;35496;-21.974;-46.800;2023-06-26T02:09:31;9.07;;;3.63;;
49590;SDS011;35496;-21.974;-46.800;2023-06-26T02:11:57;4.40;;;3.58;;
49590;SDS011;35496;-21.974;-46.800;2023-06-26T02:14:24;6.78;;;3.58;;
49590;SDS011;35496;-21.974;-46.800;2023-06-26T02:16:50;4.65;;;3.70;;
49590;SDS011;35496;-21.974;-46.800;2023-06-26T02:19:16;5.20;;;3.70;;
49590;SDS011;35496;-21.974;-46.800;2023-06-26T02:21:49;6.28;;;3.60;;
49590;SDS011;35496;-21.974;-46.800;2023-06-26T02:24:15;5.38;;;4.03;;
49590;SDS011;35496;-21.974;-46.800;2023-06-26T02:26:41;8.02;;;5.30;;
49590;SDS011;35496;-21.974;-46.800;2023-06-26T02:29:07;5.75;;;4.88;;
49590;SDS011;35496;-21.974;-46.800;2023-06-26T02:31:33;5.38;;;4.30;;
49590;SDS011;35496;-21.974;-46.800;2023-06-26T02:34:00;8.27;;;4.07;;
49590;SDS011;35496;-21.974;-46.800;2023-06-26T02:36:26;6.05;;;5.05;;
49590;SDS011;35496;-21.974;-46.800;2023-06-26T02:38:52;6.72;;;4.05;;
49590;SDS011;35496;-21.974;-46.800;2023-06-26T02:41:18;9.45;;;4.95;;
49590;SDS011;35496;-21.974;-46.800;2023-06-26T02:43:44;7.60;;;4.60;;
49590;SDS011;35496;-21.974;-46.800;2023-06-26T02:46:10;7.22;;;4.28;;
49590;SDS011;35496;-21.974;-46.800;2023-06-26T02:48:36;8.65;;;3.53;;
49590;SDS011;35496;-21.974;-46.800;2023-06-26T02:51:02;6.90;;;4.38;;
49590;SDS011;35496;-21.974;-46.800;2023-06-26T02:53:28;5.45;;;3.90;;
49590;SDS011;35496;-21.974;-46.800;2023-06-26T02:55:54;8.88;;;4.15;;
49590;SDS011;35496;-21.974;-46.800;2023-06-26T02:58:20;5.45;;;4.88;;
49590;SDS011;35496;-21.974;-46.800;2023-06-26T03:00:46;4.45;;;4.03;;
49590;SDS011;35496;-21.974;-46.800;2023-06-26T03:03:12;4.68;;;3.47;;
49590;SDS011;35496;-21.974;-46.800;2023-06-26T03:05:38;9.73;;;4.07;;
49590;SDS011;35496;-21.974;-46.800;2023-06-26T03:08:05;5.55;;;5.00;;
49590;SDS011;35496;-21.974;-46.800;2023-06-26T03:10:31;6.22;;;3.97;;
49590;SDS011;35496;-21.974;-46.800;2023-06-26T03:12:57;7.85;;;4.95;;
49590;SDS011;35496;-21.974;-46.800;2023-06-26T03:15:23;7.35;;;4.55;;
49590;SDS011;35496;-21.974;-46.800;2023-06-26T03:17:49;10.93;;;4.45;;
49590;SDS011;35496;-21.974;-46.800;2023-06-26T03:20:15;14.38;;;4.95;;
49590;SDS011;35496;-21.974;-46.800;2023-06-26T03:22:41;7.78;;;4.63;;
49590;SDS011;35496;-21.974;-46.800;2023-06-26T03:25:07;5.97;;;4.10;;
49590;SDS011;35496;-21.974;-46.800;2023-06-26T03:27:33;9.95;;;4.82;;
49590;SDS011;35496;-21.974;-46.800;2023-06-26T03:29:59;8.93;;;5.53;;
49590;SDS011;35496;-21.974;-46.800;2023-06-26T03:32:25;8.13;;;5.32;;
49590;SDS011;35496;-21.974;-46.800;2023-06-26T03:34:51;5.88;;;4.38;;
49590;SDS011;35496;-21.974;-46.800;2023-06-26T03:37:21;15.68;;;4.40;;
49590;SDS011;35496;-21.974;-46.800;2023-06-26T03:39:47;4.35;;;3.90;;
49590;SDS011;35496;-21.974;-46.800;2023-06-26T03:42:13;7.90;;;5.03;;
49590;SDS011;35496;-21.974;-46.800;2023-06-26T03:44:39;6.75;;;4.28;;
49590;SDS011;35496;-21.974;-46.800;2023-06-26T03:47:07;10.60;;;5.25;;
49590;SDS011;35496;-21.974;-46.800;2023-06-26T03:49:33;9.82;;;6.30;;
49590;SDS011;35496;-21.974;-46.800;2023-06-26T03:51:59;11.63;;;5.78;;
49590;SDS011;35496;-21.974;-46.800;2023-06-26T03:54:25;11.77;;;6.97;;
49590;SDS011;35496;-21.974;-46.800;2023-06-26T03:56:51;9.85;;;6.55;;
49590;SDS011;35496;-21.974;-46.800;2023-06-26T03:59:17;9.77;;;6.25;;
49590;SDS011;35496;-21.974;-46.800;2023-06-26T04:01:43;11.43;;;6.18;;
49590;SDS011;35496;-21.974;-46.800;2023-06-26T04:04:09;8.80;;;6.65;;
49590;SDS011;35496;-21.974;-46.800;2023-06-26T04:06:35;8.50;;;6.55;;
49590;SDS011;35496;-21.974;-46.800;2023-06-26T04:09:01;9.70;;;5.93;;
49590;SDS011;35496;-21.974;-46.800;2023-06-26T04:11:28;12.50;;;6.78;;
49590;SDS011;35496;-21.974;-46.800;2023-06-26T04:13:54;12.10;;;6.10;;
49590;SDS011;35496;-21.974;-46.800;2023-06-26T04:16:20;7.85;;;7.10;;
49590;SDS011;35496;-21.974;-46.800;2023-06-26T04:18:51;7.65;;;6.88;;
49590;SDS011;35496;-21.974;-46.800;2023-06-26T04:21:17;11.45;;;6.95;;
49590;SDS011;35496;-21.974;-46.800;2023-06-26T04:23:43;8.13;;;6.47;;
49590;SDS011;35496;-21.974;-46.800;2023-06-26T04:26:09;11.45;;;6.82;;
49590;SDS011;35496;-21.974;-46.800;2023-06-26T04:28:38;16.75;;;7.53;;
49590;SDS011;35496;-21.974;-46.800;2023-06-26T04:31:04;8.75;;;5.70;;
49590;SDS011;35496;-21.974;-46.800;2023-06-26T04:33:30;8.95;;;4.55;;
49590;SDS011;35496;-21.974;-46.800;2023-06-26T04:35:56;7.60;;;5.22;;
49590;SDS011;35496;-21.974;-46.800;2023-06-26T04:38:23;9.25;;;5.78;;
49590;SDS011;35496;-21.974;-46.800;2023-06-26T04:40:49;8.02;;;4.90;;
49590;SDS011;35496;-21.974;-46.800;2023-06-26T04:43:15;11.90;;;5.57;;
49590;SDS011;35496;-21.974;-46.800;2023-06-26T04:45:41;8.30;;;5.38;;
49590;SDS011;35496;-21.974;-46.800;2023-06-26T04:48:07;8.98;;;6.10;;
49590;SDS011;35496;-21.974;-46.800;2023-06-26T04:50:34;10.13;;;6.40;;
49590;SDS011;35496;-21.974;-46.800;2023-06-26T04:53:00;11.98;;;7.60;;
49590;SDS011;35496;-21.974;-46.800;2023-06-26T04:55:26;10.23;;;6.55;;
49590;SDS011;35496;-21.974;-46.800;2023-06-26T04:57:53;10.68;;;7.35;;
49590;SDS011;35496;-21.974;-46.800;2023-06-26T05:00:19;13.18;;;7.88;;
49590;SDS011;35496;-21.974;-46.800;2023-06-26T05:02:46;26.45;;;8.93;;
49590;SDS011;35496;-21.974;-46.800;2023-06-26T05:05:12;20.75;;;8.75;;
49590;SDS011;35496;-21.974;-46.800;2023-06-26T05:07:38;16.92;;;8.35;;
49590;SDS011;35496;-21.974;-46.800;2023-06-26T05:10:04;12.15;;;7.68;;
49590;SDS011;35496;-21.974;-46.800;2023-06-26T05:12:30;11.02;;;7.60;;
49590;SDS011;35496;-21.974;-46.800;2023-06-26T05:14:56;17.40;;;9.77;;
49590;SDS011;35496;-21.974;-46.800;2023-06-26T05:17:22;18.88;;;9.40;;
49590;SDS011;35496;-21.974;-46.800;2023-06-26T05:19:48;15.88;;;8.93;;
49590;SDS011;35496;-21.974;-46.800;2023-06-26T05:22:14;17.00;;;7.97;;
49590;SDS011;35496;-21.974;-46.800;2023-06-26T05:24:42;15.25;;;8.70;;
49590;SDS011;35496;-21.974;-46.800;2023-06-26T05:27:11;14.00;;;7.50;;
49590;SDS011;35496;-21.974;-46.800;2023-06-26T05:29:44;21.27;;;8.85;;
49590;SDS011;35496;-21.974;-46.800;2023-06-26T05:32:11;11.55;;;6.72;;
49590;SDS011;35496;-21.974;-46.800;2023-06-26T05:34:38;16.02;;;8.90;;
49590;SDS011;35496;-21.974;-46.800;2023-06-26T05:37:04;11.25;;;7.18;;
49590;SDS011;35496;-21.974;-46.800;2023-06-26T05:39:30;13.07;;;8.48;;
49590;SDS011;35496;-21.974;-46.800;2023-06-26T05:41:57;13.80;;;9.30;;
49590;SDS011;35496;-21.974;-46.800;2023-06-26T05:44:23;17.08;;;8.57;;
49590;SDS011;35496;-21.974;-46.800;2023-06-26T05:46:49;14.75;;;8.30;;
49590;SDS011;35496;-21.974;-46.800;2023-06-26T05:49:15;8.82;;;7.28;;
49590;SDS011;35496;-21.974;-46.800;2023-06-26T05:51:41;11.60;;;8.48;;
49590;SDS011;35496;-21.974;-46.800;2023-06-26T05:54:07;16.45;;;8.95;;
49590;SDS011;35496;-21.974;-46.800;2023-06-26T05:56:34;11.65;;;8.55;;
49590;SDS011;35496;-21.974;-46.800;2023-06-26T05:59:00;11.52;;;7.85;;
49590;SDS011;35496;-21.974;-46.800;2023-06-26T06:01:27;10.93;;;8.38;;
49590;SDS011;35496;-21.974;-46.800;2023-06-26T06:03:53;14.63;;;7.80;;
49590;SDS011;35496;-21.974;-46.800;2023-06-26T06:06:19;15.35;;;8.07;;
49590;SDS011;35496;-21.974;-46.800;2023-06-26T06:08:45;10.75;;;8.25;;
49590;SDS011;35496;-21.974;-46.800;2023-06-26T06:11:11;15.20;;;7.85;;
49590;SDS011;35496;-21.974;-46.800;2023-06-26T06:13:37;11.65;;;8.70;;
49590;SDS011;35496;-21.974;-46.800;2023-06-26T06:16:03;11.35;;;7.82;;
49590;SDS011;35496;-21.974;-46.800;2023-06-26T06:18:29;15.50;;;7.80;;
49590;SDS011;35496;-21.974;-46.800;2023-06-26T06:20:55;12.02;;;8.40;;
49590;SDS011;35496;-21.974;-46.800;2023-06-26T06:23:21;11.55;;;8.10;;
49590;SDS011;35496;-21.974;-46.800;2023-06-26T06:25:48;11.15;;;7.70;;
49590;SDS011;35496;-21.974;-46.800;2023-06-26T06:28:14;16.00;;;8.63;;
49590;SDS011;35496;-21.974;-46.800;2023-06-26T06:30:42;15.32;;;9.63;;
49590;SDS011;35496;-21.974;-46.800;2023-06-26T06:33:08;14.18;;;9.38;;
49590;SDS011;35496;-21.974;-46.800;2023-06-26T06:35:34;15.25;;;8.40;;
49590;SDS011;35496;-21.974;-46.800;2023-06-26T06:38:00;14.80;;;8.93;;
49590;SDS011;35496;-21.974;-46.800;2023-06-26T06:40:26;19.77;;;11.43;;
49590;SDS011;35496;-21.974;-46.800;2023-06-26T06:42:52;12.50;;;8.18;;
49590;SDS011;35496;-21.974;-46.800;2023-06-26T06:45:18;14.77;;;10.55;;
49590;SDS011;35496;-21.974;-46.800;2023-06-26T06:47:46;16.52;;;10.18;;
49590;SDS011;35496;-21.974;-46.800;2023-06-26T06:50:12;23.27;;;11.20;;
49590;SDS011;35496;-21.974;-46.800;2023-06-26T06:52:39;17.70;;;10.18;;
49590;SDS011;35496;-21.974;-46.800;2023-06-26T06:55:09;14.48;;;9.35;;
49590;SDS011;35496;-21.974;-46.800;2023-06-26T06:57:35;20.17;;;11.65;;
49590;SDS011;35496;-21.974;-46.800;2023-06-26T07:00:12;15.45;;;9.30;;
49590;SDS011;35496;-21.974;-46.800;2023-06-26T07:02:45;21.30;;;11.13;;
49590;SDS011;35496;-21.974;-46.800;2023-06-26T07:05:11;17.20;;;10.48;;
49590;SDS011;35496;-21.974;-46.800;2023-06-26T07:07:38;22.33;;;11.73;;
49590;SDS011;35496;-21.974;-46.800;2023-06-26T07:10:08;20.38;;;11.90;;
49590;SDS011;35496;-21.974;-46.800;2023-06-26T07:12:34;14.48;;;9.68;;
49590;SDS011;35496;-21.974;-46.800;2023-06-26T07:15:01;17.05;;;10.10;;
49590;SDS011;35496;-21.974;-46.800;2023-06-26T07:17:28;16.38;;;9.65;;
49590;SDS011;35496;-21.974;-46.800;2023-06-26T07:19:54;17.63;;;9.80;;
49590;SDS011;35496;-21.974;-46.800;2023-06-26T07:22:20;14.32;;;9.07;;
49590;SDS011;35496;-21.974;-46.800;2023-06-26T07:24:46;14.40;;;8.52;;
49590;SDS011;35496;-21.974;-46.800;2023-06-26T07:27:16;17.80;;;9.30;;
49590;SDS011;35496;-21.974;-46.800;2023-06-26T07:29:43;15.20;;;9.07;;
49590;SDS011;35496;-21.974;-46.800;2023-06-26T07:32:09;27.98;;;7.82;;
49590;SDS011;35496;-21.974;-46.800;2023-06-26T07:34:35;8.35;;;7.20;;
49590;SDS011;35496;-21.974;-46.800;2023-06-26T07:37:01;17.95;;;9.55;;
49590;SDS011;35496;-21.974;-46.800;2023-06-26T07:39:28;12.23;;;7.53;;
49590;SDS011;35496;-21.974;-46.800;2023-06-26T07:41:55;15.73;;;8.82;;
49590;SDS011;35496;-21.974;-46.800;2023-06-26T07:44:21;15.15;;;9.23;;
49590;SDS011;35496;-21.974;-46.800;2023-06-26T07:46:47;13.85;;;8.85;;
49590;SDS011;35496;-21.974;-46.800;2023-06-26T07:49:14;13.05;;;8.18;;
49590;SDS011;35496;-21.974;-46.800;2023-06-26T07:51:40;10.85;;;7.63;;
49590;SDS011;35496;-21.974;-46.800;2023-06-26T07:54:06;17.15;;;10.00;;
49590;SDS011;35496;-21.974;-46.800;2023-06-26T07:56:55;13.15;;;8.98;;
49590;SDS011;35496;-21.974;-46.800;2023-06-26T07:59:23;13.57;;;10.07;;
49590;SDS011;35496;-21.974;-46.800;2023-06-26T08:01:53;13.43;;;9.32;;
49590;SDS011;35496;-21.974;-46.800;2023-06-26T08:04:20;14.48;;;9.88;;
49590;SDS011;35496;-21.974;-46.800;2023-06-26T08:06:50;15.40;;;7.72;;
49590;SDS011;35496;-21.974;-46.800;2023-06-26T08:09:17;11.75;;;7.85;;
49590;SDS011;35496;-21.974;-46.800;2023-06-26T08:11:46;10.38;;;7.68;;
49590;SDS011;35496;-21.974;-46.800;2023-06-26T08:14:12;12.60;;;8.90;;
49590;SDS011;35496;-21.974;-46.800;2023-06-26T08:16:42;17.00;;;7.25;;
49590;SDS011;35496;-21.974;-46.800;2023-06-26T08:19:09;16.30;;;8.70;;
49590;SDS011;35496;-21.974;-46.800;2023-06-26T08:21:36;12.70;;;9.27;;
49590;SDS011;35496;-21.974;-46.800;2023-06-26T08:24:02;11.88;;;8.52;;
49590;SDS011;35496;-21.974;-46.800;2023-06-26T08:26:28;12.43;;;9.25;;
49590;SDS011;35496;-21.974;-46.800;2023-06-26T08:28:54;14.82;;;7.90;;
49590;SDS011;35496;-21.974;-46.800;2023-06-26T08:31:20;9.00;;;7.53;;
49590;SDS011;35496;-21.974;-46.800;2023-06-26T08:33:46;11.80;;;8.60;;
49590;SDS011;35496;-21.974;-46.800;2023-06-26T08:36:13;8.50;;;7.40;;
49590;SDS011;35496;-21.974;-46.800;2023-06-26T08:38:39;12.80;;;7.90;;
49590;SDS011;35496;-21.974;-46.800;2023-06-26T08:41:08;15.85;;;8.20;;
49590;SDS011;35496;-21.974;-46.800;2023-06-26T08:43:34;13.25;;;7.82;;
49590;SDS011;35496;-21.974;-46.800;2023-06-26T08:46:01;10.60;;;7.93;;
49590;SDS011;35496;-21.974;-46.800;2023-06-26T08:48:29;13.18;;;7.00;;
49590;SDS011;35496;-21.974;-46.800;2023-06-26T08:50:55;13.73;;;8.43;;
49590;SDS011;35496;-21.974;-46.800;2023-06-26T08:56:07;9.57;;;6.93;;
49590;SDS011;35496;-21.974;-46.800;2023-06-26T08:58:34;11.30;;;7.00;;
49590;SDS011;35496;-21.974;-46.800;2023-06-26T09:01:04;8.88;;;7.30;;
49590;SDS011;35496;-21.974;-46.800;2023-06-26T09:03:31;7.53;;;6.38;;
49590;SDS011;35496;-21.974;-46.800;2023-06-26T09:05:58;8.90;;;6.68;;
49590;SDS011;35496;-21.974;-46.800;2023-06-26T09:08:24;11.90;;;7.05;;
49590;SDS011;35496;-21.974;-46.800;2023-06-26T09:10:51;11.10;;;7.70;;
49590;SDS011;35496;-21.974;-46.800;2023-06-26T09:13:18;12.73;;;8.60;;
49590;SDS011;35496;-21.974;-46.800;2023-06-26T09:15:44;13.43;;;7.82;;
49590;SDS011;35496;-21.974;-46.800;2023-06-26T09:18:11;9.10;;;6.75;;
49590;SDS011;35496;-21.974;-46.800;2023-06-26T09:20:37;10.23;;;6.20;;
49590;SDS011;35496;-21.974;-46.800;2023-06-26T09:23:03;14.73;;;7.95;;
49590;SDS011;35496;-21.974;-46.800;2023-06-26T09:25:29;13.15;;;6.72;;
49590;SDS011;35496;-21.974;-46.800;2023-06-26T09:27:56;8.45;;;7.00;;
49590;SDS011;35496;-21.974;-46.800;2023-06-26T09:30:22;9.98;;;6.75;;
49590;SDS011;35496;-21.974;-46.800;2023-06-26T09:32:49;10.60;;;7.00;;
49590;SDS011;35496;-21.974;-46.800;2023-06-26T09:35:16;12.13;;;7.80;;
49590;SDS011;35496;-21.974;-46.800;2023-06-26T09:37:43;10.50;;;7.70;;
49590;SDS011;35496;-21.974;-46.800;2023-06-26T09:40:09;14.23;;;7.55;;
49590;SDS011;35496;-21.974;-46.800;2023-06-26T09:42:35;11.35;;;6.47;;
49590;SDS011;35496;-21.974;-46.800;2023-06-26T09:45:02;7.70;;;5.63;;
49590;SDS011;35496;-21.974;-46.800;2023-06-26T09:47:30;12.98;;;7.35;;
49590;SDS011;35496;-21.974;-46.800;2023-06-26T09:49:56;10.93;;;6.68;;
49590;SDS011;35496;-21.974;-46.800;2023-06-26T09:52:25;12.43;;;7.32;;
49590;SDS011;35496;-21.974;-46.800;2023-06-26T09:54:51;8.35;;;7.38;;
49590;SDS011;35496;-21.974;-46.800;2023-06-26T09:57:34;14.07;;;7.68;;
49590;SDS011;35496;-21.974;-46.800;2023-06-26T10:00:00;9.88;;;6.07;;
49590;SDS011;35496;-21.974;-46.800;2023-06-26T10:02:26;11.63;;;6.72;;
49590;SDS011;35496;-21.974;-46.800;2023-06-26T10:04:52;6.80;;;5.60;;
49590;SDS011;35496;-21.974;-46.800;2023-06-26T10:07:18;12.05;;;5.78;;
49590;SDS011;35496;-21.974;-46.800;2023-06-26T10:09:45;9.60;;;6.70;;
49590;SDS011;35496;-21.974;-46.800;2023-06-26T10:12:18;22.98;;;8.43;;
49590;SDS011;35496;-21.974;-46.800;2023-06-26T10:14:45;13.95;;;5.47;;
49590;SDS011;35496;-21.974;-46.800;2023-06-26T10:17:13;7.85;;;5.53;;
49590;SDS011;35496;-21.974;-46.800;2023-06-26T10:19:41;7.25;;;5.03;;
49590;SDS011;35496;-21.974;-46.800;2023-06-26T10:22:09;10.23;;;6.28;;
49590;SDS011;35496;-21.974;-46.800;2023-06-26T10:24:37;6.35;;;5.63;;
49590;SDS011;35496;-21.974;-46.800;2023-06-26T10:27:15;16.70;;;7.20;;
49590;SDS011;35496;-21.974;-46.800;2023-06-26T10:29:44;15.85;;;7.28;;
49590;SDS011;35496;-21.974;-46.800;2023-06-26T10:32:11;18.17;;;6.80;;
49590;SDS011;35496;-21.974;-46.800;2023-06-26T10:34:38;10.27;;;6.15;;
49590;SDS011;35496;-21.974;-46.800;2023-06-26T10:37:05;10.05;;;5.07;;
49590;SDS011;35496;-21.974;-46.800;2023-06-26T10:39:47;11.95;;;4.88;;
49590;SDS011;35496;-21.974;-46.800;2023-06-26T10:42:17;8.55;;;5.03;;
49590;SDS011;35496;-21.974;-46.800;2023-06-26T10:44:44;7.88;;;4.30;;
49590;SDS011;35496;-21.974;-46.800;2023-06-26T10:47:11;11.13;;;4.13;;
49590;SDS011;35496;-21.974;-46.800;2023-06-26T10:49:38;8.55;;;4.20;;
49590;SDS011;35496;-21.974;-46.800;2023-06-26T10:52:09;9.55;;;4.88;;
49590;SDS011;35496;-21.974;-46.800;2023-06-26T10:54:35;8.30;;;4.60;;
49590;SDS011;35496;-21.974;-46.800;2023-06-26T10:57:01;10.27;;;5.30;;
49590;SDS011;35496;-21.974;-46.800;2023-06-26T10:59:28;7.15;;;4.07;;
49590;SDS011;35496;-21.974;-46.800;2023-06-26T11:02:00;11.43;;;5.10;;
49590;SDS011;35496;-21.974;-46.800;2023-06-26T11:04:39;7.45;;;5.18;;
49590;SDS011;35496;-21.974;-46.800;2023-06-26T11:07:15;11.02;;;4.78;;
49590;SDS011;35496;-21.974;-46.800;2023-06-26T11:09:58;9.77;;;4.93;;
49590;SDS011;35496;-21.974;-46.800;2023-06-26T11:12:38;6.30;;;4.15;;
49590;SDS011;35496;-21.974;-46.800;2023-06-26T11:15:15;9.13;;;5.28;;
49590;SDS011;35496;-21.974;-46.800;2023-06-26T11:17:42;27.73;;;5.70;;
49590;SDS011;35496;-21.974;-46.800;2023-06-26T11:20:12;11.95;;;5.28;;
49590;SDS011;35496;-21.974;-46.800;2023-06-26T11:22:39;7.70;;;4.88;;
49590;SDS011;35496;-21.974;-46.800;2023-06-26T11:25:05;7.25;;;4.28;;
49590;SDS011;35496;-21.974;-46.800;2023-06-26T11:29:58;15.38;;;5.28;;
49590;SDS011;35496;-21.974;-46.800;2023-06-26T11:32:25;10.65;;;3.78;;
49590;SDS011;35496;-21.974;-46.800;2023-06-26T11:34:54;9.23;;;5.07;;
49590;SDS011;35496;-21.974;-46.800;2023-06-26T11:37:21;4.65;;;4.25;;
49590;SDS011;35496;-21.974;-46.800;2023-06-26T11:39:48;8.02;;;4.20;;
49590;SDS011;35496;-21.974;-46.800;2023-06-26T11:42:14;8.85;;;5.18;;
49590;SDS011;35496;-21.974;-46.800;2023-06-26T11:44:41;5.10;;;3.75;;
49590;SDS011;35496;-21.974;-46.800;2023-06-26T11:47:08;12.07;;;4.53;;
49590;SDS011;35496;-21.974;-46.800;2023-06-26T11:49:37;10.82;;;3.55;;
49590;SDS011;35496;-21.974;-46.800;2023-06-26T11:52:03;10.13;;;3.63;;
49590;SDS011;35496;-21.974;-46.800;2023-06-26T11:54:29;7.75;;;4.25;;
49590;SDS011;35496;-21.974;-46.800;2023-06-26T11:56:56;6.30;;;3.50;;
49590;SDS011;35496;-21.974;-46.800;2023-06-26T11:59:22;6.05;;;4.03;;
49590;SDS011;35496;-21.974;-46.800;2023-06-26T12:01:49;6.78;;;4.05;;
49590;SDS011;35496;-21.974;-46.800;2023-06-26T12:04:17;5.63;;;3.08;;
49590;SDS011;35496;-21.974;-46.800;2023-06-26T12:06:52;3.80;;;3.38;;
49590;SDS011;35496;-21.974;-46.800;2023-06-26T12:09:22;3.50;;;3.17;;
49590;SDS011;35496;-21.974;-46.800;2023-06-26T12:11:51;8.15;;;4.95;;
49590;SDS011;35496;-21.974;-46.800;2023-06-26T12:14:19;8.98;;;5.07;;
49590;SDS011;35496;-21.974;-46.800;2023-06-26T12:16:45;5.72;;;3.63;;
49590;SDS011;35496;-21.974;-46.800;2023-06-26T12:19:12;5.03;;;3.42;;
49590;SDS011;35496;-21.974;-46.800;2023-06-26T12:24:08;21.67;;;3.90;;
49590;SDS011;35496;-21.974;-46.800;2023-06-26T12:26:34;7.30;;;4.35;;
49590;SDS011;35496;-21.974;-46.800;2023-06-26T12:29:04;7.93;;;3.97;;
49590;SDS011;35496;-21.974;-46.800;2023-06-26T12:31:30;3.75;;;3.03;;
49590;SDS011;35496;-21.974;-46.800;2023-06-26T12:33:56;3.53;;;3.10;;
49590;SDS011;35496;-21.974;-46.800;2023-06-26T12:36:23;9.98;;;4.38;;
49590;SDS011;35496;-21.974;-46.800;2023-06-26T12:38:49;4.03;;;3.30;;
49590;SDS011;35496;-21.974;-46.800;2023-06-26T12:41:15;7.78;;;3.30;;
49590;SDS011;35496;-21.974;-46.800;2023-06-26T12:43:42;4.63;;;3.55;;
49590;SDS011;35496;-21.974;-46.800;2023-06-26T12:46:08;4.32;;;2.92;;
49590;SDS011;35496;-21.974;-46.800;2023-06-26T12:48:41;4.93;;;3.80;;
49590;SDS011;35496;-21.974;-46.800;2023-06-26T12:51:16;4.15;;;3.30;;
49590;SDS011;35496;-21.974;-46.800;2023-06-26T12:53:43;4.30;;;3.83;;
49590;SDS011;35496;-21.974;-46.800;2023-06-26T12:56:15;5.53;;;3.58;;
49590;SDS011;35496;-21.974;-46.800;2023-06-26T13:01:07;4.80;;;3.22;;
49590;SDS011;35496;-21.974;-46.800;2023-06-26T13:03:40;6.28;;;3.03;;
49590;SDS011;35496;-21.974;-46.800;2023-06-26T13:06:06;3.53;;;2.42;;
49590;SDS011;35496;-21.974;-46.800;2023-06-26T13:08:36;7.15;;;3.67;;
49590;SDS011;35496;-21.974;-46.800;2023-06-26T13:11:02;7.20;;;3.75;;
49590;SDS011;35496;-21.974;-46.800;2023-06-26T13:13:28;11.27;;;4.07;;
49590;SDS011;35496;-21.974;-46.800;2023-06-26T13:15:54;3.63;;;3.33;;
49590;SDS011;35496;-21.974;-46.800;2023-06-26T13:18:20;7.90;;;4.85;;
49590;SDS011;35496;-21.974;-46.800;2023-06-26T13:20:46;4.57;;;3.58;;
49590;SDS011;35496;-21.974;-46.800;2023-06-26T13:23:12;7.57;;;4.90;;
49590;SDS011;35496;-21.974;-46.800;2023-06-26T13:25:39;4.93;;;3.75;;
49590;SDS011;35496;-21.974;-46.800;2023-06-26T13:28:05;7.15;;;2.95;;
49590;SDS011;35496;-21.974;-46.800;2023-06-26T13:30:31;5.32;;;3.90;;
49590;SDS011;35496;-21.974;-46.800;2023-06-26T13:32:57;5.45;;;3.72;;
49590;SDS011;35496;-21.974;-46.800;2023-06-26T13:35:23;8.55;;;3.40;;
49590;SDS011;35496;-21.974;-46.800;2023-06-26T13:37:49;7.68;;;3.55;;
49590;SDS011;35496;-21.974;-46.800;2023-06-26T13:40:15;6.82;;;3.17;;
49590;SDS011;35496;-21.974;-46.800;2023-06-26T13:42:41;5.25;;;3.88;;
49590;SDS011;35496;-21.974;-46.800;2023-06-26T13:45:08;7.50;;;4.80;;
49590;SDS011;35496;-21.974;-46.800;2023-06-26T13:47:34;5.47;;;4.82;;
49590;SDS011;35496;-21.974;-46.800;2023-06-26T13:50:03;7.13;;;4.45;;
49590;SDS011;35496;-21.974;-46.800;2023-06-26T13:52:29;6.70;;;4.35;;
49590;SDS011;35496;-21.974;-46.800;2023-06-26T13:54:55;5.22;;;3.58;;
49590;SDS011;35496;-21.974;-46.800;2023-06-26T13:57:21;11.98;;;4.25;;
49590;SDS011;35496;-21.974;-46.800;2023-06-26T13:59:47;10.25;;;4.28;;
49590;SDS011;35496;-21.974;-46.800;2023-06-26T14:02:14;6.28;;;4.18;;
49590;SDS011;35496;-21.974;-46.800;2023-06-26T14:04:40;6.65;;;3.60;;
49590;SDS011;35496;-21.974;-46.800;2023-06-26T14:07:07;8.27;;;3.45;;
49590;SDS011;35496;-21.974;-46.800;2023-06-26T14:09:33;7.93;;;4.95;;
49590;SDS011;35496;-21.974;-46.800;2023-06-26T14:11:59;7.82;;;3.95;;
49590;SDS011;35496;-21.974;-46.800;2023-06-26T14:14:25;4.72;;;3.75;;
49590;SDS011;35496;-21.974;-46.800;2023-06-26T14:16:51;8.73;;;4.32;;
49590;SDS011;35496;-21.974;-46.800;2023-06-26T14:19:17;8.35;;;3.33;;
49590;SDS011;35496;-21.974;-46.800;2023-06-26T14:21:43;9.45;;;3.80;;
49590;SDS011;35496;-21.974;-46.800;2023-06-26T14:24:09;5.95;;;3.95;;